createdAt,value
2023-03-02T00:00:15.368Z,2.90
2023-03-02T00:02:45.168Z,2.90
2023-03-02T00:05:15.937Z,2.80
2023-03-02T00:07:44.048Z,2.80
2023-03-02T00:10:12.754Z,2.80
2023-03-02T00:12:47.558Z,2.80
2023-03-02T00:15:15.548Z,2.80
2023-03-02T00:17:44.888Z,2.80
2023-03-02T00:20:13.250Z,2.80
2023-03-02T00:22:41.924Z,2.80
2023-03-02T00:25:10.832Z,2.80
2023-03-02T00:27:38.833Z,2.70
2023-03-02T00:30:10.033Z,2.70
2023-03-02T00:32:41.029Z,2.70
2023-03-02T00:35:11.206Z,2.70
2023-03-02T00:37:39.235Z,2.70
2023-03-02T00:40:09.534Z,2.70
2023-03-02T00:42:37.646Z,2.70
2023-03-02T00:45:06.031Z,2.70
2023-03-02T00:47:34.837Z,2.70
2023-03-02T00:50:03.130Z,2.70
2023-03-02T00:52:32.784Z,2.70
2023-03-02T00:55:03.519Z,2.60
2023-03-02T00:57:31.506Z,2.60
2023-03-02T00:59:59.521Z,2.60
2023-03-02T01:02:27.585Z,2.60
2023-03-02T01:04:55.757Z,2.60
2023-03-02T01:07:24.967Z,2.60
2023-03-02T01:09:54.339Z,2.60
2023-03-02T01:12:22.285Z,2.50
2023-03-02T01:14:50.839Z,2.50
2023-03-02T01:17:18.853Z,2.50
2023-03-02T01:19:46.879Z,2.50
2023-03-02T01:22:14.885Z,2.40
2023-03-02T01:24:42.897Z,2.50
2023-03-02T01:27:12.291Z,2.50
2023-03-02T01:29:40.812Z,2.50
2023-03-02T01:32:08.905Z,2.50
2023-03-02T01:34:41.451Z,2.50
2023-03-02T01:37:15.101Z,2.40
2023-03-02T01:39:44.573Z,2.40
2023-03-02T01:42:13.972Z,2.40
2023-03-02T01:44:44.051Z,2.40
2023-03-02T01:47:14.560Z,2.30
2023-03-02T01:49:46.063Z,2.30
2023-03-02T01:52:15.573Z,2.30
2023-03-02T01:54:45.669Z,2.30
2023-03-02T01:57:15.100Z,2.40
2023-03-02T01:59:43.306Z,2.40
2023-03-02T02:02:12.664Z,2.40
2023-03-02T02:04:43.719Z,2.40
2023-03-02T02:07:14.918Z,2.40
2023-03-02T02:09:46.865Z,2.40
2023-03-02T02:12:20.347Z,2.40
2023-03-02T02:14:48.784Z,2.40
2023-03-02T02:17:17.914Z,2.40
2023-03-02T02:19:56.115Z,2.40
2023-03-02T02:22:29.610Z,2.40
2023-03-02T02:24:59.933Z,2.40
2023-03-02T02:27:29.862Z,2.40
2023-03-02T02:29:58.376Z,2.40
2023-03-02T02:32:27.773Z,2.40
2023-03-02T02:34:58.820Z,2.30
2023-03-02T02:37:28.820Z,2.30
2023-03-02T02:39:57.503Z,2.30
2023-03-02T02:42:32.656Z,2.30
2023-03-02T02:45:02.917Z,2.30
2023-03-02T02:47:31.182Z,2.20
2023-03-02T02:49:59.349Z,2.10
2023-03-02T02:52:30.127Z,2.10
2023-03-02T02:55:03.002Z,2.00
2023-03-02T02:57:31.158Z,2.00
2023-03-02T03:00:06.008Z,1.90
2023-03-02T03:02:35.766Z,1.80
2023-03-02T03:05:03.823Z,1.80
2023-03-02T03:07:35.338Z,1.70
2023-03-02T03:10:06.628Z,1.70
2023-03-02T03:12:34.671Z,1.70
2023-03-02T03:15:04.246Z,1.70
2023-03-02T03:17:32.297Z,1.70
2023-03-02T03:20:06.496Z,1.70
2023-03-02T03:22:37.481Z,1.60
2023-03-02T03:25:07.610Z,1.50
2023-03-02T03:27:35.653Z,1.50
2023-03-02T03:30:07.859Z,1.40
2023-03-02T03:32:38.810Z,1.50
2023-03-02T03:35:08.772Z,1.50
2023-03-02T03:37:37.011Z,1.50
2023-03-02T03:40:06.852Z,1.50
2023-03-02T03:42:34.830Z,1.40
2023-03-02T03:45:02.925Z,1.40
2023-03-02T03:47:32.487Z,1.40
2023-03-02T03:50:00.525Z,1.40
2023-03-02T03:52:31.446Z,1.40
2023-03-02T03:55:02.051Z,1.30
2023-03-02T03:57:33.547Z,1.30
2023-03-02T04:00:02.709Z,1.30
2023-03-02T04:02:35.144Z,1.20
2023-03-02T04:05:06.367Z,1.10
2023-03-02T04:07:34.584Z,1.10
2023-03-02T04:10:04.492Z,1.20
2023-03-02T04:12:34.721Z,1.20
2023-03-02T04:15:02.735Z,1.20
2023-03-02T04:17:30.769Z,1.20
2023-03-02T04:20:08.278Z,1.20
2023-03-02T04:22:36.314Z,1.20
2023-03-02T04:25:05.116Z,1.20
2023-03-02T04:27:33.144Z,1.10
2023-03-02T04:30:01.236Z,1.10
2023-03-02T04:32:32.079Z,1.00
2023-03-02T04:35:01.607Z,1.00
2023-03-02T04:37:29.594Z,1.00
2023-03-02T04:39:57.634Z,1.00
2023-03-02T04:42:25.599Z,1.00
2023-03-02T04:44:53.586Z,1.00
2023-03-02T04:47:22.084Z,1.00
2023-03-02T04:49:54.608Z,1.10
2023-03-02T04:52:25.017Z,1.00
2023-03-02T04:54:53.360Z,1.00
2023-03-02T04:57:21.323Z,0.90
2023-03-02T04:59:51.871Z,0.90
2023-03-02T05:02:19.931Z,0.90
2023-03-02T05:04:48.001Z,0.90
2023-03-02T05:07:17.907Z,0.90
2023-03-02T05:09:47.748Z,1.30
2023-03-02T05:12:15.812Z,0.90
2023-03-02T05:14:45.700Z,0.90
2023-03-02T05:17:14.227Z,0.80
2023-03-02T05:19:43.911Z,0.80
2023-03-02T05:22:22.419Z,0.70
2023-03-02T05:24:51.753Z,0.70
2023-03-02T05:27:19.736Z,0.60
2023-03-02T05:29:47.710Z,0.60
2023-03-02T05:32:15.783Z,0.60
2023-03-02T05:34:43.751Z,0.60
2023-03-02T05:37:14.630Z,0.50
2023-03-02T05:39:42.645Z,0.60
2023-03-02T05:42:12.019Z,0.50
2023-03-02T05:44:40.006Z,0.50
2023-03-02T05:47:08.036Z,0.50
2023-03-02T05:49:42.279Z,0.50
2023-03-02T05:52:12.889Z,0.50
2023-03-02T05:54:41.361Z,0.60
2023-03-02T05:57:09.471Z,0.60
2023-03-02T05:59:38.784Z,0.60
2023-03-02T06:02:06.746Z,0.60
2023-03-02T06:04:36.906Z,0.60
2023-03-02T06:07:04.852Z,0.60
2023-03-02T06:09:34.101Z,0.60
2023-03-02T06:12:02.081Z,0.60
2023-03-02T06:14:30.056Z,0.60
2023-03-02T06:16:59.540Z,0.60
2023-03-02T06:19:27.567Z,0.60
2023-03-02T06:21:56.994Z,0.60
2023-03-02T06:24:24.975Z,0.60
2023-03-02T06:26:53.927Z,0.60
2023-03-02T06:29:21.877Z,0.60
2023-03-02T06:31:50.042Z,0.60
2023-03-02T06:34:19.460Z,0.60
2023-03-02T06:36:49.373Z,0.60
2023-03-02T06:39:20.209Z,0.60
2023-03-02T06:41:48.617Z,0.60
2023-03-02T06:44:17.375Z,0.50
2023-03-02T06:46:45.792Z,0.50
2023-03-02T06:49:14.297Z,1.00
2023-03-02T06:51:43.663Z,0.50
2023-03-02T06:54:14.787Z,0.50
2023-03-02T06:56:42.755Z,0.60
2023-03-02T06:59:10.769Z,0.60
2023-03-02T07:01:38.791Z,0.60
2023-03-02T07:04:06.829Z,0.60
2023-03-02T07:06:34.811Z,0.60
2023-03-02T07:09:04.479Z,0.50
2023-03-02T07:11:32.803Z,0.50
2023-03-02T07:14:01.010Z,0.50
2023-03-02T07:16:30.356Z,0.50
2023-03-02T07:18:58.406Z,0.50
2023-03-02T07:21:26.397Z,0.50
2023-03-02T07:23:54.620Z,0.50
2023-03-02T07:26:23.936Z,0.50
2023-03-02T07:28:51.924Z,0.50
2023-03-02T07:31:19.928Z,0.50
2023-03-02T07:33:47.963Z,0.50
2023-03-02T07:36:16.001Z,0.50
2023-03-02T07:38:44.062Z,0.50
2023-03-02T07:41:12.330Z,0.50
2023-03-02T07:43:41.620Z,0.50
2023-03-02T07:46:09.716Z,0.50
2023-03-02T07:48:37.706Z,0.60
2023-03-02T07:51:06.534Z,0.60
2023-03-02T07:53:37.502Z,0.50
2023-03-02T07:56:11.481Z,0.40
2023-03-02T07:58:40.844Z,0.40
2023-03-02T08:01:09.032Z,0.40
2023-03-02T08:03:37.070Z,0.40
2023-03-02T08:06:06.054Z,0.40
2023-03-02T08:08:34.204Z,0.50
2023-03-02T08:11:05.223Z,0.50
2023-03-02T08:13:33.240Z,0.50
2023-03-02T08:16:09.263Z,0.50
2023-03-02T08:18:37.729Z,0.60
2023-03-02T08:21:06.051Z,0.60
2023-03-02T08:23:34.038Z,0.60
2023-03-02T08:26:02.035Z,0.60
2023-03-02T08:28:30.005Z,0.60
2023-03-02T08:30:58.090Z,0.60
2023-03-02T08:33:27.952Z,0.60
2023-03-02T08:35:57.407Z,0.50
2023-03-02T08:38:25.905Z,0.50
2023-03-02T08:40:54.039Z,0.50
2023-03-02T08:43:22.667Z,0.50
2023-03-02T08:45:51.648Z,0.50
2023-03-02T08:48:19.714Z,0.50
2023-03-02T08:50:56.476Z,0.50
2023-03-02T08:53:24.859Z,0.50
2023-03-02T08:55:53.025Z,0.50
2023-03-02T08:58:21.228Z,0.50
2023-03-02T09:00:49.249Z,0.60
2023-03-02T09:03:17.540Z,0.60
2023-03-02T09:05:45.540Z,0.60
2023-03-02T09:08:14.881Z,0.60
2023-03-02T09:10:42.833Z,0.70
2023-03-02T09:13:10.763Z,0.70
2023-03-02T09:15:38.774Z,0.70
2023-03-02T09:18:06.825Z,0.80
2023-03-02T09:20:36.808Z,0.80
2023-03-02T09:23:12.460Z,0.80
2023-03-02T09:25:41.794Z,0.80
2023-03-02T09:28:09.799Z,0.80
2023-03-02T09:30:37.776Z,0.80
2023-03-02T09:33:07.087Z,0.80
2023-03-02T09:35:35.128Z,0.80
2023-03-02T09:38:03.095Z,0.80
2023-03-02T09:40:33.440Z,0.90
2023-03-02T09:43:21.857Z,0.90
2023-03-02T09:45:57.893Z,1.00
2023-03-02T09:48:32.776Z,1.00
2023-03-02T09:51:09.088Z,1.00
2023-03-02T09:53:40.328Z,1.00
2023-03-02T09:56:13.919Z,1.10
2023-03-02T09:58:42.660Z,1.10
2023-03-02T10:01:16.494Z,1.20
2023-03-02T10:03:51.194Z,1.10
2023-03-02T10:06:19.684Z,1.20
2023-03-02T10:08:50.465Z,1.20
2023-03-02T10:11:24.018Z,1.20
2023-03-02T10:13:59.563Z,1.20
2023-03-02T10:16:34.444Z,1.20
2023-03-02T10:19:08.798Z,1.20
2023-03-02T10:21:39.285Z,1.30
2023-03-02T10:24:13.539Z,1.30
2023-03-02T10:26:42.779Z,1.30
2023-03-02T10:29:31.577Z,1.40
2023-03-02T10:32:02.795Z,1.40
2023-03-02T10:34:32.925Z,1.50
2023-03-02T10:37:00.896Z,1.50
2023-03-02T10:39:28.837Z,1.50
2023-03-02T10:42:02.906Z,1.10
2023-03-02T10:44:32.804Z,1.50
2023-03-02T10:47:05.404Z,1.60
2023-03-02T10:49:34.290Z,1.60
2023-03-02T10:52:03.232Z,1.60
2023-03-02T10:54:31.936Z,1.60
2023-03-02T10:57:01.583Z,1.70
2023-03-02T10:59:43.874Z,1.70
2023-03-02T11:02:23.093Z,1.70
2023-03-02T11:04:57.230Z,1.70
2023-03-02T11:07:26.633Z,1.80
2023-03-02T11:10:01.898Z,1.80
2023-03-02T11:12:33.562Z,1.80
2023-03-02T11:15:19.505Z,1.90
2023-03-02T11:17:49.971Z,1.90
2023-03-02T11:20:21.210Z,1.90
2023-03-02T11:22:54.205Z,2.00
2023-03-02T11:25:28.780Z,2.00
2023-03-02T11:28:00.173Z,2.00
2023-03-02T11:30:29.701Z,2.00
2023-03-02T11:33:02.858Z,2.00
2023-03-02T11:35:33.211Z,2.00
2023-03-02T11:38:09.234Z,1.90
2023-03-02T11:40:42.423Z,1.80
2023-03-02T11:43:11.064Z,1.80
2023-03-02T11:45:42.648Z,1.90
2023-03-02T11:48:16.989Z,1.80
2023-03-02T11:50:51.208Z,1.80
2023-03-02T11:53:20.419Z,1.90
2023-03-02T11:55:52.608Z,2.00
2023-03-02T11:58:21.915Z,2.00
2023-03-02T12:00:50.502Z,2.10
2023-03-02T12:03:27.809Z,2.10
2023-03-02T12:06:05.172Z,2.20
2023-03-02T12:08:38.095Z,2.30
2023-03-02T12:11:07.726Z,2.30
2023-03-02T12:13:36.621Z,2.30
2023-03-02T12:16:04.912Z,2.60
2023-03-02T12:18:45.205Z,2.20
2023-03-02T12:21:16.385Z,2.30
2023-03-02T12:23:58.516Z,2.30
2023-03-02T12:26:30.008Z,2.40
2023-03-02T12:29:00.034Z,2.40
2023-03-02T12:31:28.770Z,2.40
2023-03-02T12:34:01.005Z,2.40
2023-03-02T12:36:33.107Z,2.40
2023-03-02T12:39:09.516Z,2.40
2023-03-02T12:41:45.021Z,2.50
2023-03-02T12:44:27.882Z,2.50
2023-03-02T12:46:56.920Z,2.50
2023-03-02T12:49:43.608Z,2.50
2023-03-02T12:52:22.167Z,2.60
2023-03-02T12:55:00.651Z,2.60
2023-03-02T12:57:28.826Z,2.60
2023-03-02T12:59:58.052Z,2.70
2023-03-02T13:02:27.133Z,2.80
2023-03-02T13:04:57.873Z,2.80
2023-03-02T13:07:27.111Z,2.90
2023-03-02T13:09:57.220Z,2.80
2023-03-02T13:12:26.948Z,2.80
2023-03-02T13:14:59.018Z,2.90
2023-03-02T13:17:31.065Z,2.90
2023-03-02T13:20:01.908Z,3.00
2023-03-02T13:22:31.323Z,3.00
2023-03-02T13:25:08.177Z,3.00
2023-03-02T13:27:36.191Z,3.10
2023-03-02T13:30:12.908Z,3.00
2023-03-02T13:32:42.849Z,3.10
2023-03-02T13:35:24.393Z,3.20
2023-03-02T13:37:58.659Z,3.30
2023-03-02T13:40:31.831Z,3.40
2023-03-02T13:43:00.157Z,3.50
2023-03-02T13:45:32.395Z,3.50
2023-03-02T13:48:01.492Z,3.50
2023-03-02T13:50:34.867Z,3.50
2023-03-02T13:53:06.988Z,3.60
2023-03-02T13:55:35.693Z,3.60
2023-03-02T13:58:03.849Z,3.70
2023-03-02T14:00:33.294Z,3.70
2023-03-02T14:03:01.350Z,4.10
2023-03-02T14:05:33.241Z,3.70
2023-03-02T14:08:08.555Z,3.70
2023-03-02T14:10:36.510Z,3.70
2023-03-02T14:13:06.405Z,3.80
2023-03-02T14:15:35.299Z,3.70
2023-03-02T14:18:03.375Z,3.70
2023-03-02T14:20:31.340Z,3.70
2023-03-02T14:23:03.447Z,3.70
2023-03-02T14:25:35.732Z,3.70
2023-03-02T14:28:04.341Z,3.70
2023-03-02T14:30:32.338Z,3.70
2023-03-02T14:33:03.122Z,3.70
2023-03-02T14:35:31.133Z,3.70
2023-03-02T14:38:02.077Z,3.70
2023-03-02T14:40:30.052Z,3.60
2023-03-02T14:42:59.706Z,3.70
2023-03-02T14:45:29.306Z,3.70
2023-03-02T14:47:58.922Z,3.60
2023-03-02T14:50:26.908Z,3.60
2023-03-02T14:52:55.926Z,3.60
2023-03-02T14:55:26.079Z,3.60
2023-03-02T14:57:54.771Z,3.60
2023-03-02T15:00:30.528Z,3.60
2023-03-02T15:02:59.481Z,3.70
2023-03-02T15:05:27.703Z,3.70
2023-03-02T15:07:59.628Z,3.70
2023-03-02T15:10:27.705Z,3.70
2023-03-02T15:12:58.287Z,3.70
2023-03-02T15:15:27.251Z,3.70
2023-03-02T15:17:56.593Z,3.70
2023-03-02T15:20:24.605Z,3.70
2023-03-02T15:22:53.420Z,3.70
2023-03-02T15:25:23.888Z,3.70
2023-03-02T15:27:51.869Z,3.70
2023-03-02T15:30:20.150Z,3.80
2023-03-02T15:32:48.133Z,3.70
2023-03-02T15:35:18.121Z,3.80
2023-03-02T15:37:46.067Z,3.80
2023-03-02T15:40:14.213Z,3.80
2023-03-02T15:42:42.164Z,3.80
2023-03-02T15:45:10.483Z,3.70
2023-03-02T15:47:38.570Z,3.70
2023-03-02T15:50:09.200Z,3.70
2023-03-02T15:52:38.619Z,3.70
2023-03-02T15:55:06.984Z,3.70
2023-03-02T15:57:37.323Z,3.70
2023-03-02T16:00:05.720Z,3.70
2023-03-02T16:02:33.677Z,3.80
2023-03-02T16:05:04.974Z,3.80
2023-03-02T16:07:37.184Z,3.70
2023-03-02T16:10:07.363Z,3.70
2023-03-02T16:12:35.336Z,3.60
2023-03-02T16:15:03.298Z,3.50
2023-03-02T16:17:33.598Z,3.50
2023-03-02T16:20:04.108Z,3.40
2023-03-02T16:22:32.057Z,3.30
2023-03-02T16:25:00.039Z,3.30
2023-03-02T16:27:30.293Z,3.40
2023-03-02T16:29:59.753Z,3.30
2023-03-02T16:32:30.027Z,3.40
2023-03-02T16:34:58.034Z,3.40
2023-03-02T16:37:26.012Z,3.40
2023-03-02T16:39:54.001Z,3.40
2023-03-02T16:42:21.968Z,3.40
2023-03-02T16:44:51.917Z,3.30
2023-03-02T16:47:21.506Z,3.30
2023-03-02T16:49:52.398Z,3.30
2023-03-02T16:52:20.436Z,3.30
2023-03-02T16:54:48.581Z,3.30
2023-03-02T16:57:16.546Z,3.30
2023-03-02T16:59:44.521Z,3.20
2023-03-02T17:02:13.854Z,3.20
2023-03-02T17:04:41.947Z,3.20
2023-03-02T17:07:10.047Z,3.10
2023-03-02T17:09:43.371Z,3.10
2023-03-02T17:12:14.216Z,3.00
2023-03-02T17:14:42.288Z,3.00
2023-03-02T17:17:10.293Z,3.00
2023-03-02T17:19:45.896Z,3.00
2023-03-02T17:22:13.859Z,2.90
2023-03-02T17:24:42.272Z,2.90
2023-03-02T17:27:23.801Z,2.90
2023-03-02T17:29:52.736Z,2.90
2023-03-02T17:32:20.849Z,2.90
2023-03-02T17:34:50.510Z,2.90
2023-03-02T17:37:18.540Z,2.80
2023-03-02T17:39:46.690Z,2.80
2023-03-02T17:42:17.656Z,2.80
2023-03-02T17:44:45.653Z,2.70
2023-03-02T17:47:15.430Z,2.70
2023-03-02T17:49:45.340Z,2.70
2023-03-02T17:52:15.307Z,2.60
2023-03-02T17:54:43.716Z,2.60
2023-03-02T17:57:14.582Z,2.60
2023-03-02T17:59:46.220Z,2.60
2023-03-02T18:02:14.249Z,2.60
2023-03-02T18:04:42.244Z,2.60
2023-03-02T18:07:10.213Z,2.60
2023-03-02T18:09:39.590Z,2.60
2023-03-02T18:12:07.864Z,2.60
2023-03-02T18:14:36.329Z,2.60
2023-03-02T18:17:07.567Z,2.60
2023-03-02T18:19:35.512Z,2.50
2023-03-02T18:22:03.619Z,2.50
2023-03-02T18:24:31.841Z,2.50
2023-03-02T18:27:01.182Z,2.60
2023-03-02T18:29:29.133Z,2.60
2023-03-02T18:31:57.207Z,2.60
2023-03-02T18:34:25.214Z,2.60
2023-03-02T18:36:53.182Z,2.70
2023-03-02T18:39:21.211Z,2.60
2023-03-02T18:41:51.566Z,2.60
2023-03-02T18:44:27.836Z,2.60
2023-03-02T18:46:56.189Z,2.60
2023-03-02T18:49:24.705Z,2.60
2023-03-02T18:51:53.013Z,2.60
2023-03-02T18:54:24.329Z,2.60
2023-03-02T18:56:52.482Z,2.60
2023-03-02T18:59:20.494Z,2.60
2023-03-02T19:01:49.895Z,2.60
2023-03-02T19:04:17.913Z,2.60
2023-03-02T19:06:45.911Z,2.60
2023-03-02T19:09:13.908Z,2.60
2023-03-02T19:11:41.933Z,2.60
2023-03-02T19:14:09.912Z,2.70
2023-03-02T19:16:37.905Z,2.70
2023-03-02T19:19:07.262Z,2.70
2023-03-02T19:21:35.235Z,2.70
2023-03-02T19:24:05.161Z,2.60
2023-03-02T19:26:33.233Z,2.70
2023-03-02T19:29:04.784Z,2.70
2023-03-02T19:31:32.828Z,2.70
2023-03-02T19:34:00.861Z,2.70
2023-03-02T19:36:30.338Z,2.70
2023-03-02T19:38:58.311Z,2.70
2023-03-02T19:41:29.166Z,2.70
2023-03-02T19:43:57.137Z,2.70
2023-03-02T19:46:25.254Z,2.70
2023-03-02T19:48:55.421Z,2.70
2023-03-02T19:51:23.363Z,2.70
2023-03-02T19:53:52.997Z,2.70
2023-03-02T19:56:21.192Z,2.70
2023-03-02T19:58:54.028Z,2.70
2023-03-02T20:01:24.778Z,2.70
2023-03-02T20:03:53.116Z,2.80
2023-03-02T20:06:21.542Z,2.70
2023-03-02T20:08:49.793Z,2.70
2023-03-02T20:11:22.185Z,2.70
2023-03-02T20:13:50.533Z,2.70
2023-03-02T20:16:19.551Z,2.70
2023-03-02T20:18:51.084Z,2.70
2023-03-02T20:21:19.460Z,2.70
2023-03-02T20:23:49.078Z,2.70
2023-03-02T20:26:17.102Z,2.70
2023-03-02T20:28:48.797Z,2.70
2023-03-02T20:31:19.437Z,2.60
2023-03-02T20:33:48.626Z,2.60
2023-03-02T20:36:20.395Z,2.70
2023-03-02T20:38:56.181Z,2.70
2023-03-02T20:41:24.204Z,2.70
2023-03-02T20:43:53.688Z,2.70
2023-03-02T20:46:24.258Z,2.70
2023-03-02T20:48:52.668Z,2.70
2023-03-02T20:51:21.012Z,2.70
2023-03-02T20:53:48.997Z,2.70
2023-03-02T20:56:18.143Z,2.70
2023-03-02T20:59:01.131Z,2.70
2023-03-02T21:01:30.663Z,2.70
2023-03-02T21:03:58.879Z,2.70
2023-03-02T21:06:27.240Z,2.70
2023-03-02T21:09:00.171Z,2.70
2023-03-02T21:11:28.831Z,2.70
2023-03-02T21:13:59.427Z,2.70
2023-03-02T21:16:28.598Z,2.70
2023-03-02T21:18:57.939Z,2.70
2023-03-02T21:21:39.439Z,2.70
2023-03-02T21:24:09.656Z,2.80
2023-03-02T21:26:37.687Z,2.80
2023-03-02T21:29:06.290Z,2.80
2023-03-02T21:31:34.447Z,2.80
2023-03-02T21:34:05.898Z,2.80
2023-03-02T21:36:33.977Z,2.80
2023-03-02T21:39:05.549Z,2.80
2023-03-02T21:41:35.684Z,2.80
2023-03-02T21:44:05.434Z,2.80
2023-03-02T21:46:34.413Z,2.80
2023-03-02T21:49:03.888Z,2.80
2023-03-02T21:51:31.880Z,2.80
2023-03-02T21:53:59.839Z,2.80
2023-03-02T21:56:28.068Z,2.90
2023-03-02T21:58:56.831Z,2.80
2023-03-02T22:01:25.250Z,2.90
2023-03-02T22:03:53.338Z,2.90
2023-03-02T22:06:25.347Z,2.80
2023-03-02T22:08:57.027Z,2.80
2023-03-02T22:11:25.692Z,2.90
2023-03-02T22:13:55.254Z,2.90
2023-03-02T22:16:24.253Z,2.90
2023-03-02T22:18:54.720Z,2.90
2023-03-02T22:21:30.697Z,2.90
2023-03-02T22:24:15.053Z,2.90
2023-03-02T22:26:44.247Z,2.90
2023-03-02T22:29:14.882Z,2.90
2023-03-02T22:31:45.952Z,2.90
2023-03-02T22:34:15.104Z,2.90
2023-03-02T22:36:44.543Z,2.90
2023-03-02T22:39:18.415Z,2.90
2023-03-02T22:41:49.357Z,2.90
2023-03-02T22:44:17.319Z,2.90
2023-03-02T22:46:45.448Z,2.90
2023-03-02T22:49:15.726Z,2.90
2023-03-02T22:51:45.738Z,2.90
2023-03-02T22:54:17.680Z,2.90
2023-03-02T22:56:47.296Z,2.90
2023-03-02T22:59:18.314Z,2.90
2023-03-02T23:01:46.772Z,2.90
2023-03-02T23:04:18.046Z,2.90
2023-03-02T23:06:48.117Z,2.90
2023-03-02T23:09:17.482Z,2.90
2023-03-02T23:11:45.744Z,2.90
2023-03-02T23:14:22.667Z,2.90
2023-03-02T23:16:54.010Z,2.90
2023-03-02T23:19:22.285Z,2.90
2023-03-02T23:21:54.271Z,2.90
2023-03-02T23:24:22.215Z,2.90
2023-03-02T23:26:52.142Z,2.90
2023-03-02T23:29:21.218Z,2.90
2023-03-02T23:31:49.368Z,2.90
2023-03-02T23:34:17.402Z,2.90
2023-03-02T23:36:45.373Z,2.90
2023-03-02T23:39:17.622Z,2.90
2023-03-02T23:41:47.219Z,2.90
2023-03-02T23:44:19.290Z,2.90
2023-03-02T23:46:51.851Z,2.90
2023-03-02T23:49:20.070Z,2.90
2023-03-02T23:51:48.036Z,2.90
2023-03-02T23:54:17.429Z,2.90
2023-03-02T23:56:45.579Z,2.90
2023-03-02T23:59:13.730Z,2.90
